Flugplatz Nardt

Für EDAT sind keine METAR/TAF Berichte vorhanden.
Es werden die Flugwettermeldungen vom Flugplatz Dresden in 46 km Entfernung angezeigt.

Bericht für EDDC

vom 27.01. um 04:20 UTC

variable Windrichtung mit 2 kt

Sichtweite 10 km oder mehr

gute Sicht, keine Wolken < 5000 ft, keine CB, keine Wettererscheinungen (CAVOK)

Temperatur 1.0°C

Taupunkt 0.0°C

Luftfeuchtigkeit 93%

Luftdruck 1014 hPa

EDDC 270420Z VRB02KT CAVOK 01/M00 Q1014

Prognose für EDDC

vom 26.01. um 00:00 UTC

Zwischen 00:00 UTC und 00:00 UTC

Wind 8 kt aus 180°

Sichtweite 10 km oder mehr

aufgelockert bewölkt in 4500 ft


Zwischen 00:00 und 00:00 UTC übergehend zu

Wind 13 kt aus 160°

Sichtweite 10 km oder mehr

aufgelockert bewölkt in 4500 ft

TAF EDDC 262300Z 2700/2724 18008KT 9999 SCT045 BECMG 2717/2719 16013KT
Impressum